Time;durP1;ratioP1;P1;durP2;ratioP2;P2;SDS_P1;SDS_P2;PMS_P1;PMS_P2;Temp;Humidity;BMP_temperature;BMP_pressure;BME280_temperature;BME280_humidity;BME280_pressure;Samples;Min_cycle;Max_cycle;Signal;HPM_P1;HPM_P2
2022/05/12 00:01:37;;;;;;;38.83;22.65;;;;;;;;;;5052957;28;20401;-70
2022/05/12 00:04:41;;;;;;;35.67;23.63;;;;;;;;;;5052704;28;20055;-71
2022/05/12 00:07:46;;;;;;;39.72;26.67;;;;;;;;;;5052835;28;20437;-71
2022/05/12 00:10:50;;;;;;;36.60;26.52;;;;;;;;;;5052850;28;20056;-71
2022/05/12 00:13:55;;;;;;;54.10;29.33;;;;;;;;;;5052386;28;20044;-71
2022/05/12 00:17:00;;;;;;;43.92;32.08;;;;;;;;;;5051870;28;20404;-71
2022/05/12 00:20:05;;;;;;;69.00;35.97;;;;;;;;;;5052680;28;20354;-71
2022/05/12 00:23:10;;;;;;;55.75;37.25;;;;;;;;;;5052479;28;20056;-71
2022/05/12 00:26:14;;;;;;;50.45;35.78;;;;;;;;;;5052573;28;20043;-71
2022/05/12 00:29:18;;;;;;;55.90;36.78;;;;;;;;;;5051601;28;20056;-71
2022/05/12 00:32:24;;;;;;;61.22;37.75;;;;;;;;;;5052202;28;20060;-70
2022/05/12 00:35:28;;;;;;;80.47;45.22;;;;;;;;;;5051572;28;20056;-73
2022/05/12 00:38:32;;;;;;;86.57;45.33;;;;;;;;;;5051961;28;20043;-71
2022/05/12 00:41:37;;;;;;;94.00;45.90;;;;;;;;;;5052346;28;20060;-71
2022/05/12 00:44:41;;;;;;;133.50;48.45;;;;;;;;;;5052056;28;20052;-71
2022/05/12 00:47:46;;;;;;;128.73;52.15;;;;;;;;;;5051351;28;20044;-71
2022/05/12 00:50:50;;;;;;;89.20;51.85;;;;;;;;;;5052038;28;20562;-71
2022/05/12 00:53:57;;;;;;;281.67;54.20;;;;;;;;;;5051744;28;20055;-70
2022/05/12 00:57:03;;;;;;;113.63;51.88;;;;;;;;;;5052531;28;20048;-71
2022/05/12 01:00:08;;;;;;;101.75;49.40;;;;;;;;;;5051857;28;20040;-71
2022/05/12 01:03:15;;;;;;;78.68;46.83;;;;;;;;;;5050205;28;20116;-70
2022/05/12 01:06:19;;;;;;;78.05;45.30;;;;;;;;;;5050769;28;20044;-70
2022/05/12 01:09:25;;;;;;;68.95;44.03;;;;;;;;;;5051150;28;20051;-70
2022/05/12 01:12:29;;;;;;;61.65;40.13;;;;;;;;;;5051726;28;20421;-70
2022/05/12 01:15:33;;;;;;;57.55;38.58;;;;;;;;;;5051363;28;20513;-70
2022/05/12 01:18:39;;;;;;;55.65;38.17;;;;;;;;;;5051239;28;20048;-70
2022/05/12 01:21:44;;;;;;;56.47;38.55;;;;;;;;;;5039256;28;20036;-70
2022/05/12 01:24:48;;;;;;;55.65;37.10;;;;;;;;;;5051222;28;20056;-70
2022/05/12 01:27:53;;;;;;;53.53;37.13;;;;;;;;;;5051275;28;20040;-70
2022/05/12 01:30:59;;;;;;;55.00;36.58;;;;;;;;;;5051436;28;20044;-70
2022/05/12 01:34:05;;;;;;;49.75;34.10;;;;;;;;;;5050467;28;20044;-70
2022/05/12 01:37:09;;;;;;;50.72;33.72;;;;;;;;;;5050892;28;20044;-70
2022/05/12 01:40:15;;;;;;;50.42;32.88;;;;;;;;;;5050950;28;20044;-70
2022/05/12 01:43:20;;;;;;;47.85;32.47;;;;;;;;;;5050900;28;20063;-70
2022/05/12 01:46:24;;;;;;;47.90;30.13;;;;;;;;;;5051079;28;20064;-70
2022/05/12 01:49:28;;;;;;;43.80;28.85;;;;;;;;;;5050055;28;20056;-70
2022/05/12 01:52:33;;;;;;;45.78;28.30;;;;;;;;;;5051006;28;20051;-70
2022/05/12 01:55:38;;;;;;;38.33;25.65;;;;;;;;;;5050709;28;20047;-70
2022/05/12 01:58:43;;;;;;;39.63;26.83;;;;;;;;;;5051068;28;20059;-70
2022/05/12 02:01:47;;;;;;;39.85;26.23;;;;;;;;;;5050986;28;20040;-70
2022/05/12 02:04:51;;;;;;;40.25;27.15;;;;;;;;;;5050790;28;20048;-70
2022/05/12 02:07:55;;;;;;;43.90;30.30;;;;;;;;;;5049934;28;20052;-71
2022/05/12 02:11:00;;;;;;;50.08;32.20;;;;;;;;;;5050890;28;20064;-70
2022/05/12 02:14:05;;;;;;;46.95;31.58;;;;;;;;;;5050682;28;20060;-70
2022/05/12 02:17:09;;;;;;;46.53;29.60;;;;;;;;;;5054204;28;20393;-70
2022/05/12 02:20:14;;;;;;;51.55;31.15;;;;;;;;;;5054887;28;20047;-70
2022/05/12 02:23:18;;;;;;;50.67;31.05;;;;;;;;;;5053866;28;20412;-70
2022/05/12 02:26:22;;;;;;;47.38;30.85;;;;;;;;;;5054448;28;20420;-70
2022/05/12 02:29:27;;;;;;;41.33;28.38;;;;;;;;;;5054681;28;20040;-70
2022/05/12 02:32:31;;;;;;;49.70;29.60;;;;;;;;;;5054457;28;20047;-70
2022/05/12 02:35:36;;;;;;;41.80;28.73;;;;;;;;;;5054361;28;20052;-70
2022/05/12 02:38:40;;;;;;;45.92;28.75;;;;;;;;;;5053610;28;20048;-70
2022/05/12 02:41:45;;;;;;;42.85;28.02;;;;;;;;;;5054511;28;20055;-70
2022/05/12 02:44:49;;;;;;;46.42;29.40;;;;;;;;;;5053243;28;20064;-70
2022/05/12 02:47:53;;;;;;;46.40;29.15;;;;;;;;;;5053351;28;20040;-70
2022/05/12 02:50:58;;;;;;;44.42;29.05;;;;;;;;;;5054286;28;20048;-70
2022/05/12 02:54:03;;;;;;;44.65;28.52;;;;;;;;;;5054115;28;20499;-70
2022/05/12 02:57:07;;;;;;;44.47;28.45;;;;;;;;;;5054096;28;20060;-70
2022/05/12 03:00:13;;;;;;;43.35;26.85;;;;;;;;;;5054061;28;20040;-70
2022/05/12 03:03:18;;;;;;;41.90;26.75;;;;;;;;;;5053846;28;20056;-70
2022/05/12 03:06:22;;;;;;;41.85;27.67;;;;;;;;;;5052886;28;20048;-70
2022/05/12 03:09:26;;;;;;;40.45;25.15;;;;;;;;;;5052612;28;20417;-70
2022/05/12 03:12:32;;;;;;;36.03;23.90;;;;;;;;;;5040293;28;20056;-70
2022/05/12 03:15:36;;;;;;;40.55;24.00;;;;;;;;;;5052322;28;20100;-70
2022/05/12 03:18:40;;;;;;;34.60;24.05;;;;;;;;;;5052191;28;20051;-70
2022/05/12 03:21:46;;;;;;;41.17;25.23;;;;;;;;;;5052453;28;20047;-70
2022/05/12 03:24:50;;;;;;;41.67;26.20;;;;;;;;;;5052467;28;20056;-70
2022/05/12 03:27:54;;;;;;;42.33;27.10;;;;;;;;;;5051245;28;20496;-70
2022/05/12 03:30:59;;;;;;;43.38;27.20;;;;;;;;;;5051905;28;20048;-70
2022/05/12 03:34:06;;;;;;;38.88;25.98;;;;;;;;;;5052319;28;20036;-70
2022/05/12 03:37:10;;;;;;;42.47;26.33;;;;;;;;;;5052313;28;20052;-70
2022/05/12 03:40:17;;;;;;;44.60;26.48;;;;;;;;;;5051291;28;20048;-70
2022/05/12 03:46:44;;;;;;;40.78;25.38;;;;;;;;;;5052027;28;20516;-70
2022/05/12 03:49:54;;;;;;;38.55;24.27;;;;;;;;;;5051264;28;20044;-70
2022/05/12 03:52:58;;;;;;;40.55;23.15;;;;;;;;;;5051211;28;20044;-70
2022/05/12 03:56:03;;;;;;;35.45;22.75;;;;;;;;;;5051172;28;20047;-70
2022/05/12 03:59:07;;;;;;;40.30;25.05;;;;;;;;;;5051830;28;20040;-70
2022/05/12 04:02:13;;;;;;;39.47;26.75;;;;;;;;;;5051717;28;20064;-70
2022/05/12 04:05:18;;;;;;;41.88;26.27;;;;;;;;;;5051768;28;20508;-70
2022/05/12 04:08:22;;;;;;;43.05;26.55;;;;;;;;;;5011286;28;1167416;-70
2022/05/12 04:11:26;;;;;;;41.13;25.20;;;;;;;;;;5052020;28;20048;-70
2022/05/12 04:14:31;;;;;;;41.17;23.88;;;;;;;;;;5052297;28;20048;-70
2022/05/12 04:17:35;;;;;;;53.67;30.52;;;;;;;;;;5052621;28;20044;-70
2022/05/12 04:20:40;;;;;;;47.50;29.13;;;;;;;;;;5052724;28;20511;-70
2022/05/12 04:23:44;;;;;;;45.55;29.30;;;;;;;;;;5052201;28;20405;-70
2022/05/12 04:26:48;;;;;;;47.80;28.75;;;;;;;;;;5051320;28;20052;-70
2022/05/12 04:29:53;;;;;;;48.60;28.40;;;;;;;;;;5052395;28;20068;-70
2022/05/12 04:35:09;;;;;;;42.85;27.52;;;;;;;;;;5052502;28;20047;-70
2022/05/12 04:36:21;;;;;;;39.28;25.20;;;;;;;;;;5052185;28;20044;-70
2022/05/12 04:39:26;;;;;;;43.08;28.55;;;;;;;;;;5049938;28;20063;-70
2022/05/12 04:42:30;;;;;;;43.80;26.77;;;;;;;;;;5050204;28;20047;-70
2022/05/12 04:45:36;;;;;;;46.13;27.70;;;;;;;;;;5050220;28;20055;-70
2022/05/12 04:48:40;;;;;;;41.20;26.90;;;;;;;;;;5051309;28;20040;-70
2022/05/12 04:51:44;;;;;;;38.10;25.55;;;;;;;;;;5051304;28;20507;-70
2022/05/12 04:54:49;;;;;;;41.53;26.85;;;;;;;;;;5051493;28;20039;-70
2022/05/12 04:57:55;;;;;;;41.13;26.23;;;;;;;;;;5051774;28;20047;-70
2022/05/12 05:00:59;;;;;;;38.53;25.65;;;;;;;;;;5051775;28;20384;-70
2022/05/12 05:04:04;;;;;;;40.08;25.00;;;;;;;;;;5051354;28;20060;-68
2022/05/12 05:07:10;;;;;;;45.63;26.10;;;;;;;;;;5051683;28;20044;-68
2022/05/12 05:10:15;;;;;;;43.95;26.20;;;;;;;;;;5051291;28;20060;-68
2022/05/12 05:13:19;;;;;;;37.45;25.33;;;;;;;;;;5050459;28;20056;-68
2022/05/12 05:16:23;;;;;;;39.72;25.27;;;;;;;;;;5051484;28;20056;-68
2022/05/12 05:19:28;;;;;;;39.63;24.20;;;;;;;;;;5051375;28;20396;-69
2022/05/12 05:22:36;;;;;;;33.33;24.48;;;;;;;;;;5051059;28;20513;-70
2022/05/12 05:25:40;;;;;;;46.45;24.08;;;;;;;;;;5051205;28;20052;-71
2022/05/12 05:28:44;;;;;;;41.10;24.48;;;;;;;;;;5051375;28;20111;-69
2022/05/12 05:31:49;;;;;;;40.13;23.48;;;;;;;;;;5051402;28;20047;-72
2022/05/12 05:34:54;;;;;;;46.35;23.48;;;;;;;;;;5051214;28;20044;-72
2022/05/12 05:37:59;;;;;;;38.53;23.17;;;;;;;;;;5051210;28;20539;-70
2022/05/12 05:41:03;;;;;;;39.50;22.45;;;;;;;;;;5050964;28;20044;-71
2022/05/12 05:44:08;;;;;;;40.58;22.85;;;;;;;;;;5050496;28;20060;-71
2022/05/12 05:47:12;;;;;;;35.60;22.92;;;;;;;;;;5050101;28;20059;-67
2022/05/12 05:50:21;;;;;;;42.95;22.95;;;;;;;;;;5050566;28;20072;-67
2022/05/12 05:53:27;;;;;;;39.17;22.60;;;;;;;;;;5051028;28;20055;-67
2022/05/12 05:56:32;;;;;;;39.28;22.30;;;;;;;;;;5050886;28;20048;-67
2022/05/12 05:59:36;;;;;;;41.97;23.92;;;;;;;;;;5050596;28;20052;-67
2022/05/12 06:02:41;;;;;;;45.65;24.33;;;;;;;;;;5051048;28;20068;-67
2022/05/12 06:05:46;;;;;;;34.35;24.77;;;;;;;;;;5050724;28;20044;-68
2022/05/12 06:08:51;;;;;;;38.78;23.08;;;;;;;;;;5050160;28;20056;-68
2022/05/12 06:11:55;;;;;;;37.80;24.15;;;;;;;;;;5052861;28;20044;-68
2022/05/12 06:15:00;;;;;;;44.03;24.70;;;;;;;;;;5050809;28;20040;-68
2022/05/12 06:18:08;;;;;;;37.95;23.75;;;;;;;;;;5050922;28;20048;-68
2022/05/12 06:21:12;;;;;;;40.20;25.13;;;;;;;;;;5050039;28;20064;-67
2022/05/12 06:24:16;;;;;;;38.67;23.27;;;;;;;;;;5049831;28;20056;-67
2022/05/12 06:27:22;;;;;;;35.08;22.88;;;;;;;;;;5050965;28;20151;-67
2022/05/12 06:30:29;;;;;;;37.38;22.33;;;;;;;;;;5050929;28;20384;-67
2022/05/12 06:33:33;;;;;;;40.47;23.65;;;;;;;;;;5050374;28;20044;-67
2022/05/12 06:36:37;;;;;;;34.75;22.85;;;;;;;;;;5050333;28;20056;-67
2022/05/12 06:39:42;;;;;;;35.35;21.98;;;;;;;;;;5050414;28;20445;-67
2022/05/12 06:42:47;;;;;;;31.75;22.58;;;;;;;;;;5049198;28;20044;-67
2022/05/12 06:45:51;;;;;;;36.28;21.05;;;;;;;;;;5050564;28;20071;-67
2022/05/12 06:48:55;;;;;;;32.03;20.27;;;;;;;;;;5048813;28;20040;-73
2022/05/12 06:51:59;;;;;;;35.78;18.85;;;;;;;;;;5049236;28;20071;-71
2022/05/12 06:55:04;;;;;;;28.77;17.27;;;;;;;;;;5049394;28;20040;-69
2022/05/12 06:58:10;;;;;;;33.95;17.67;;;;;;;;;;5049791;28;20040;-75
2022/05/12 07:01:14;;;;;;;29.17;19.50;;;;;;;;;;5050787;28;20040;-68
2022/05/12 07:04:19;;;;;;;35.10;19.98;;;;;;;;;;5053091;28;20056;-68
2022/05/12 07:07:24;;;;;;;37.80;19.48;;;;;;;;;;5052576;28;20036;-68
2022/05/12 07:10:29;;;;;;;30.60;20.40;;;;;;;;;;5053375;28;20531;-68
2022/05/12 07:13:33;;;;;;;34.72;19.25;;;;;;;;;;5053398;28;20043;-68
2022/05/12 07:16:37;;;;;;;30.45;18.85;;;;;;;;;;5054087;28;20056;-68
2022/05/12 07:19:42;;;;;;;30.25;19.33;;;;;;;;;;5052237;28;20111;-67
2022/05/12 07:29:34;;;;;;;32.60;18.95;;;;;;;;;;5043905;28;20060;-68
2022/05/12 07:32:38;;;;;;;62.05;19.08;;;;;;;;;;5053323;28;20068;-68
2022/05/12 07:35:43;;;;;;;37.85;18.80;;;;;;;;;;5053555;28;20040;-68
2022/05/12 07:38:48;;;;;;;33.97;17.67;;;;;;;;;;5053827;28;20044;-68
2022/05/12 07:41:53;;;;;;;39.20;18.40;;;;;;;;;;5053216;28;20059;-68
2022/05/12 07:44:58;;;;;;;29.05;16.58;;;;;;;;;;5052824;28;20468;-67
2022/05/12 07:48:02;;;;;;;33.22;19.08;;;;;;;;;;5053072;28;20048;-67
2022/05/12 07:51:07;;;;;;;33.90;18.83;;;;;;;;;;5053010;28;20060;-67
2022/05/12 07:54:11;;;;;;;34.92;20.60;;;;;;;;;;5051981;28;20048;-67
2022/05/12 07:57:15;;;;;;;38.15;19.23;;;;;;;;;;5052914;28;20052;-67
2022/05/12 08:00:20;;;;;;;34.40;20.65;;;;;;;;;;5052584;28;20500;-67
2022/05/12 08:03:25;;;;;;;35.67;21.30;;;;;;;;;;5052365;28;20504;-67
2022/05/12 08:06:31;;;;;;;34.47;21.33;;;;;;;;;;5052880;28;20056;-67
2022/05/12 08:09:35;;;;;;;27.33;17.70;;;;;;;;;;5051579;28;20056;-68
2022/05/12 08:12:39;;;;;;;24.35;17.23;;;;;;;;;;5051307;28;20040;-68
2022/05/12 08:15:48;;;;;;;32.47;17.90;;;;;;;;;;5052602;28;20048;-67
2022/05/12 08:18:53;;;;;;;31.48;18.42;;;;;;;;;;5052645;28;20063;-67
2022/05/12 08:21:57;;;;;;;28.08;18.77;;;;;;;;;;5040438;28;20048;-67
2022/05/12 08:25:04;;;;;;;25.70;17.65;;;;;;;;;;5052219;28;20052;-67
2022/05/12 08:28:08;;;;;;;31.73;18.00;;;;;;;;;;5052482;28;20060;-67
2022/05/12 08:31:12;;;;;;;25.85;17.40;;;;;;;;;;5051544;28;20507;-67
2022/05/12 08:34:17;;;;;;;23.20;12.65;;;;;;;;;;5051354;28;20397;-67
2022/05/12 08:37:22;;;;;;;15.00;10.02;;;;;;;;;;5052154;28;20064;-67
2022/05/12 08:40:26;;;;;;;20.95;10.85;;;;;;;;;;5052001;28;20048;-68
2022/05/12 08:43:50;;;;;;;18.05;11.52;;;;;;;;;;5050859;28;20511;-67
2022/05/12 08:46:54;;;;;;;20.05;10.48;;;;;;;;;;5052056;28;20052;-67
2022/05/12 08:49:59;;;;;;;15.95;9.50;;;;;;;;;;5051671;28;20040;-67
2022/05/12 08:53:05;;;;;;;23.83;10.68;;;;;;;;;;5051750;28;20045;-67
2022/05/12 08:56:10;;;;;;;15.73;7.80;;;;;;;;;;5050745;28;20040;-68
2022/05/12 08:59:14;;;;;;;22.90;8.60;;;;;;;;;;5050735;28;20055;-67
2022/05/12 09:02:43;;;;;;;19.85;8.38;;;;;;;;;;5038971;28;20056;-67
2022/05/12 09:06:00;;;;;;;17.27;8.15;;;;;;;;;;5051385;28;20049;-68
2022/05/12 09:09:23;;;;;;;19.20;7.82;;;;;;;;;;5051583;28;20508;-68
2022/05/12 09:12:32;;;;;;;15.15;7.68;;;;;;;;;;5050822;28;20053;-68
2022/05/12 09:15:38;;;;;;;12.93;6.50;;;;;;;;;;5051619;28;20339;-68
2022/05/12 09:18:43;;;;;;;24.63;7.70;;;;;;;;;;5051176;28;20505;-68
2022/05/12 09:21:49;;;;;;;21.92;8.45;;;;;;;;;;5051590;28;20041;-68
2022/05/12 09:24:53;;;;;;;12.30;6.32;;;;;;;;;;5050735;28;20406;-67
2022/05/12 09:27:58;;;;;;;21.10;8.07;;;;;;;;;;5051168;28;20374;-67
2022/05/12 09:31:17;;;;;;;15.65;7.00;;;;;;;;;;5051374;28;20048;-67
2022/05/12 09:34:21;;;;;;;11.60;6.28;;;;;;;;;;5051025;28;20666;-67
2022/05/12 09:37:27;;;;;;;14.30;6.65;;;;;;;;;;5038755;28;20085;-67
2022/05/12 09:40:35;;;;;;;16.45;6.72;;;;;;;;;;5051092;28;20039;-66
2022/05/12 09:43:39;;;;;;;19.10;7.47;;;;;;;;;;5050879;28;20045;-66
2022/05/12 09:46:54;;;;;;;16.88;7.40;;;;;;;;;;5050778;28;20483;-67
2022/05/12 09:50:17;;;;;;;13.23;6.35;;;;;;;;;;5050202;28;20047;-67
2022/05/12 09:53:26;;;;;;;16.70;6.82;;;;;;;;;;5050756;28;20044;-68
2022/05/12 09:56:33;;;;;;;11.52;7.18;;;;;;;;;;5050514;28;20060;-68
2022/05/12 09:59:38;;;;;;;11.32;6.43;;;;;;;;;;5049752;28;20044;-66
2022/05/12 10:09:34;;;;;;;18.83;8.15;;;;;;;;;;5049329;28;20472;-68
2022/05/12 10:12:46;;;;;;;13.43;6.97;;;;;;;;;;5050353;28;20424;-68
2022/05/12 10:15:52;;;;;;;13.32;6.10;;;;;;;;;;5050202;28;20048;-69
2022/05/12 10:18:59;;;;;;;20.08;8.77;;;;;;;;;;5049460;28;20044;-67
2022/05/12 10:22:12;;;;;;;15.93;7.32;;;;;;;;;;5050562;28;20047;-67
2022/05/12 10:25:31;;;;;;;17.60;8.50;;;;;;;;;;5050071;28;20049;-68
2022/05/12 10:28:36;;;;;;;14.52;7.97;;;;;;;;;;5037868;28;20044;-67
2022/05/12 10:31:40;;;;;;;18.40;8.30;;;;;;;;;;5050335;28;20052;-68
2022/05/12 10:34:56;;;;;;;13.13;7.90;;;;;;;;;;5050136;28;20228;-69
2022/05/12 10:38:10;;;;;;;21.50;8.55;;;;;;;;;;5053381;28;20045;-67
2022/05/12 10:41:20;;;;;;;20.58;9.48;;;;;;;;;;5054237;28;20083;-68
2022/05/12 10:44:43;;;;;;;16.77;8.93;;;;;;;;;;5053828;28;20052;-67
2022/05/12 10:48:05;;;;;;;24.08;9.60;;;;;;;;;;5053916;28;20056;-68
2022/05/12 10:51:25;;;;;;;16.13;8.77;;;;;;;;;;5053377;28;20523;-67
2022/05/12 10:54:32;;;;;;;16.52;9.38;;;;;;;;;;5054098;28;20041;-67
2022/05/12 10:57:47;;;;;;;17.92;11.77;;;;;;;;;;5054107;28;20045;-67
2022/05/12 11:01:11;;;;;;;22.42;9.45;;;;;;;;;;5053035;28;20063;-67
2022/05/12 11:04:19;;;;;;;16.00;8.77;;;;;;;;;;5053495;28;20408;-67
2022/05/12 11:07:36;;;;;;;17.02;9.32;;;;;;;;;;5053172;28;20044;-67
2022/05/12 11:10:44;;;;;;;17.55;9.05;;;;;;;;;;5053570;28;20389;-68
2022/05/12 11:13:51;;;;;;;19.25;9.30;;;;;;;;;;5053512;28;20397;-69
2022/05/12 11:17:09;;;;;;;23.02;11.65;;;;;;;;;;5053849;28;20401;-70
2022/05/12 11:20:32;;;;;;;12.57;7.60;;;;;;;;;;5053726;28;20048;-72
2022/05/12 11:23:42;;;;;;;13.20;8.00;;;;;;;;;;5053425;28;20049;-74
2022/05/12 11:27:13;;;;;;;14.73;8.43;;;;;;;;;;5053605;28;20049;-71
2022/05/12 11:30:20;;;;;;;19.63;9.70;;;;;;;;;;5053095;28;20040;-71
2022/05/12 11:33:32;;;;;;;23.88;10.52;;;;;;;;;;5052486;28;20036;-68
2022/05/12 11:36:41;;;;;;;22.73;11.50;;;;;;;;;;5052591;28;20044;-69
2022/05/12 11:39:55;;;;;;;15.63;9.00;;;;;;;;;;5053400;28;20044;-69
2022/05/12 11:46:24;;;;;;;17.85;9.43;;;;;;;;;;5052022;28;20045;-69
2022/05/12 11:49:43;;;;;;;20.35;10.02;;;;;;;;;;5053075;28;20044;-71
2022/05/12 11:52:50;;;;;;;22.95;10.50;;;;;;;;;;5052991;28;20591;-71
2022/05/12 11:55:55;;;;;;;13.68;8.52;;;;;;;;;;5053095;28;20044;-73
2022/05/12 11:59:33;;;;;;;16.67;10.27;;;;;;;;;;5052657;28;20045;-71
2022/05/12 12:02:39;;;;;;;22.58;10.55;;;;;;;;;;5052299;28;20116;-70
2022/05/12 12:05:44;;;;;;;28.85;9.93;;;;;;;;;;5052777;28;20052;-73
2022/05/12 12:08:48;;;;;;;17.20;9.00;;;;;;;;;;5051568;28;20056;-73
2022/05/12 12:11:52;;;;;;;17.25;9.15;;;;;;;;;;5052639;28;20063;-68
2022/05/12 12:14:58;;;;;;;23.45;9.98;;;;;;;;;;5052694;28;20037;-67
2022/05/12 12:18:32;;;;;;;16.65;8.93;;;;;;;;;;5052394;28;20393;-67
2022/05/12 12:21:47;;;;;;;16.67;10.30;;;;;;;;;;5056428;28;20045;-67
2022/05/12 12:25:01;;;;;;;17.95;10.10;;;;;;;;;;5052163;28;20056;-67
2022/05/12 12:28:24;;;;;;;15.05;7.78;;;;;;;;;;5052124;28;20059;-67
2022/05/12 12:31:37;;;;;;;17.08;8.85;;;;;;;;;;5051735;28;20041;-67
2022/05/12 12:34:48;;;;;;;23.13;8.68;;;;;;;;;;5052157;28;20044;-67
2022/05/12 12:37:52;;;;;;;17.75;9.38;;;;;;;;;;5052492;28;20040;-67
2022/05/12 12:40:59;;;;;;;16.50;8.48;;;;;;;;;;5052321;28;20041;-68
2022/05/12 12:44:09;;;;;;;16.40;8.45;;;;;;;;;;5050819;28;20428;-67
2022/05/12 12:47:24;;;;;;;13.88;8.32;;;;;;;;;;5051050;28;20287;-67
2022/05/12 12:50:29;;;;;;;15.23;8.88;;;;;;;;;;5051902;28;20036;-67
2022/05/12 12:57:02;;;;;;;13.77;8.73;;;;;;;;;;5051993;28;20051;-67
2022/05/12 13:00:14;;;;;;;17.48;8.57;;;;;;;;;;5051159;28;20051;-67
2022/05/12 13:03:20;;;;;;;15.35;7.97;;;;;;;;;;5051636;28;20040;-67
2022/05/12 13:06:28;;;;;;;15.15;9.35;;;;;;;;;;5051354;28;20045;-67
2022/05/12 13:09:34;;;;;;;15.07;7.95;;;;;;;;;;5051175;28;20056;-68
2022/05/12 13:12:38;;;;;;;14.45;8.48;;;;;;;;;;5051168;28;20036;-68
2022/05/12 13:15:46;;;;;;;15.07;8.13;;;;;;;;;;5051203;28;20044;-67
2022/05/12 13:18:53;;;;;;;10.00;7.35;;;;;;;;;;5051298;28;20044;-67
2022/05/12 13:21:57;;;;;;;20.50;10.60;;;;;;;;;;5051184;28;20040;-67
2022/05/12 13:25:01;;;;;;;14.90;9.65;;;;;;;;;;5051157;28;20060;-67
2022/05/12 13:28:07;;;;;;;19.63;10.68;;;;;;;;;;5051317;28;20306;-67
2022/05/12 13:31:14;;;;;;;22.75;10.98;;;;;;;;;;5051043;28;20052;-67
2022/05/12 13:34:20;;;;;;;24.38;11.10;;;;;;;;;;5051172;28;20044;-67
2022/05/12 13:37:30;;;;;;;20.60;9.45;;;;;;;;;;5050837;28;20051;-68
2022/05/12 13:40:52;;;;;;;19.05;8.20;;;;;;;;;;5050901;28;20037;-67
2022/05/12 13:44:18;;;;;;;19.38;9.38;;;;;;;;;;5050840;28;20049;-67
2022/05/12 13:47:27;;;;;;;15.75;8.25;;;;;;;;;;5051191;28;20041;-67
2022/05/12 13:50:37;;;;;;;17.95;9.50;;;;;;;;;;5050793;28;20497;-67
2022/05/12 13:53:49;;;;;;;14.52;7.18;;;;;;;;;;5050463;28;20082;-67
2022/05/12 13:56:54;;;;;;;19.67;7.80;;;;;;;;;;5050816;28;20048;-68
2022/05/12 13:59:58;;;;;;;12.38;8.40;;;;;;;;;;5050453;28;20396;-67
2022/05/12 14:03:11;;;;;;;22.13;9.25;;;;;;;;;;5050406;28;20045;-67
2022/05/12 14:06:22;;;;;;;14.93;9.10;;;;;;;;;;5050764;28;20041;-68
2022/05/12 14:09:34;;;;;;;11.32;7.70;;;;;;;;;;5050616;28;20052;-68
2022/05/12 14:19:13;;;;;;;20.45;9.80;;;;;;;;;;5054745;28;20041;-67
2022/05/12 14:19:40;;;;;;;21.73;8.52;;;;;;;;;;5054879;28;20389;-67
2022/05/12 14:22:45;;;;;;;17.70;9.20;;;;;;;;;;5054620;28;20036;-68
2022/05/12 14:25:49;;;;;;;16.20;8.88;;;;;;;;;;5054032;28;20049;-67
2022/05/12 14:28:54;;;;;;;21.88;8.93;;;;;;;;;;5054470;28;20048;-67
2022/05/12 14:31:59;;;;;;;16.60;9.98;;;;;;;;;;5052434;28;20049;-68
2022/05/12 14:35:04;;;;;;;22.85;8.48;;;;;;;;;;5053516;28;20041;-68
2022/05/12 14:38:08;;;;;;;25.10;8.88;;;;;;;;;;5053575;28;20037;-67
2022/05/12 14:41:13;;;;;;;14.27;7.30;;;;;;;;;;5054165;28;20029;-70
2022/05/12 14:44:17;;;;;;;12.02;7.47;;;;;;;;;;5054121;28;20059;-68
2022/05/12 14:47:24;;;;;;;19.25;9.00;;;;;;;;;;5054121;28;20508;-69
2022/05/12 14:50:29;;;;;;;15.27;8.98;;;;;;;;;;5053950;28;20049;-70
2022/05/12 14:53:35;;;;;;;22.42;8.73;;;;;;;;;;5053681;28;20042;-70
2022/05/12 14:56:41;;;;;;;14.13;8.25;;;;;;;;;;5054282;28;20036;-70
2022/05/12 14:59:45;;;;;;;21.75;8.60;;;;;;;;;;5054190;28;20049;-71
2022/05/12 15:02:50;;;;;;;20.27;8.48;;;;;;;;;;5053774;28;20505;-70
2022/05/12 15:05:55;;;;;;;19.00;8.00;;;;;;;;;;5052763;28;20057;-69
2022/05/12 15:09:00;;;;;;;16.48;7.72;;;;;;;;;;5041283;28;20056;-69
2022/05/12 15:12:04;;;;;;;15.02;7.82;;;;;;;;;;5053916;28;20079;-71
2022/05/12 15:15:09;;;;;;;27.60;8.50;;;;;;;;;;5052939;28;20044;-70
2022/05/12 15:18:13;;;;;;;13.20;8.07;;;;;;;;;;5053642;28;20044;-68
2022/05/12 15:21:17;;;;;;;19.70;8.27;;;;;;;;;;5053472;28;20453;-68
2022/05/12 15:24:22;;;;;;;12.30;7.22;;;;;;;;;;5053051;28;20511;-68
2022/05/12 15:27:29;;;;;;;17.00;8.23;;;;;;;;;;5053695;28;20388;-67
2022/05/12 15:30:33;;;;;;;15.48;8.73;;;;;;;;;;5053279;28;20048;-68
2022/05/12 15:33:38;;;;;;;23.58;9.43;;;;;;;;;;5053372;28;20503;-68
2022/05/12 15:36:44;;;;;;;21.98;8.40;;;;;;;;;;5053476;28;20049;-67
2022/05/12 15:39:48;;;;;;;19.88;8.80;;;;;;;;;;5053268;28;20032;-68
2022/05/12 15:42:52;;;;;;;21.95;8.73;;;;;;;;;;5052964;28;20398;-68
2022/05/12 15:45:57;;;;;;;14.27;7.95;;;;;;;;;;5051934;28;20079;-69
2022/05/12 15:49:02;;;;;;;17.65;8.93;;;;;;;;;;5052823;28;20052;-72
2022/05/12 15:52:08;;;;;;;19.98;9.18;;;;;;;;;;5052721;28;20036;-71
2022/05/12 15:55:12;;;;;;;22.25;8.40;;;;;;;;;;5040540;28;20037;-71
2022/05/12 15:58:16;;;;;;;16.88;8.55;;;;;;;;;;5052723;28;20056;-70
2022/05/12 16:01:21;;;;;;;18.65;9.15;;;;;;;;;;5053004;28;20064;-69
2022/05/12 16:04:26;;;;;;;17.40;9.98;;;;;;;;;;5052746;28;20051;-70
2022/05/12 16:07:30;;;;;;;18.70;9.18;;;;;;;;;;5052365;28;20044;-75
2022/05/12 16:10:35;;;;;;;17.40;8.13;;;;;;;;;;5052473;28;20045;-73
2022/05/12 16:13:39;;;;;;;22.08;9.27;;;;;;;;;;5051272;28;20037;-70
2022/05/12 16:16:44;;;;;;;16.90;9.18;;;;;;;;;;5052384;28;20033;-76
2022/05/12 16:19:49;;;;;;;21.20;8.30;;;;;;;;;;5052165;28;20052;-70
2022/05/12 16:22:54;;;;;;;19.77;8.23;;;;;;;;;;5052318;28;20040;-70
2022/05/12 16:26:00;;;;;;;24.02;9.30;;;;;;;;;;5051897;28;20049;-71
2022/05/12 16:29:07;;;;;;;23.67;9.30;;;;;;;;;;5052403;28;20041;-72
2022/05/12 16:32:12;;;;;;;17.02;9.45;;;;;;;;;;5052294;28;20049;-72
2022/05/12 16:35:17;;;;;;;15.85;9.63;;;;;;;;;;5051317;28;20041;-71
2022/05/12 16:38:23;;;;;;;19.17;10.00;;;;;;;;;;5050495;28;20386;-71
2022/05/12 16:41:28;;;;;;;23.23;12.30;;;;;;;;;;5051159;28;20036;-72
2022/05/12 16:44:32;;;;;;;32.60;10.73;;;;;;;;;;5051738;28;20052;-69
2022/05/12 16:47:37;;;;;;;13.27;8.38;;;;;;;;;;5051874;28;20061;-70
2022/05/12 16:50:48;;;;;;;22.30;9.82;;;;;;;;;;5050764;28;20037;-69
2022/05/12 16:53:52;;;;;;;19.80;10.23;;;;;;;;;;5051499;28;20041;-70
2022/05/12 16:56:58;;;;;;;17.92;8.82;;;;;;;;;;5050345;28;20429;-70
2022/05/12 17:00:04;;;;;;;17.25;9.43;;;;;;;;;;5049681;28;20041;-70
2022/05/12 17:03:09;;;;;;;23.90;10.52;;;;;;;;;;5051464;28;20032;-70
2022/05/12 17:06:13;;;;;;;18.50;9.40;;;;;;;;;;5050462;28;20051;-70
2022/05/12 17:09:18;;;;;;;21.92;10.43;;;;;;;;;;5051229;28;20056;-70
2022/05/12 17:12:23;;;;;;;27.70;12.35;;;;;;;;;;5051073;28;20040;-70
2022/05/12 17:15:27;;;;;;;25.30;10.73;;;;;;;;;;5051559;28;20040;-70
2022/05/12 17:18:33;;;;;;;24.77;10.70;;;;;;;;;;5050635;28;20408;-70
2022/05/12 17:21:38;;;;;;;23.38;10.50;;;;;;;;;;5050563;28;20155;-70
2022/05/12 17:24:43;;;;;;;15.98;9.20;;;;;;;;;;5051028;28;20068;-70
2022/05/12 17:27:47;;;;;;;19.75;9.38;;;;;;;;;;5051282;28;20476;-70
2022/05/12 17:30:52;;;;;;;26.33;11.10;;;;;;;;;;5050994;28;20402;-70
2022/05/12 17:33:57;;;;;;;21.42;10.35;;;;;;;;;;5050928;28;20043;-70
2022/05/12 17:37:01;;;;;;;19.85;10.38;;;;;;;;;;5051149;28;20056;-70
2022/05/12 17:40:12;;;;;;;21.58;9.95;;;;;;;;;;5050616;28;20048;-70
2022/05/12 17:43:18;;;;;;;20.17;11.02;;;;;;;;;;5050811;28;20037;-71
2022/05/12 17:46:22;;;;;;;19.92;11.02;;;;;;;;;;5050226;28;20060;-71
2022/05/12 17:49:26;;;;;;;26.63;10.93;;;;;;;;;;5050245;28;20040;-71
2022/05/12 17:52:31;;;;;;;22.30;11.38;;;;;;;;;;5049657;28;20523;-71
2022/05/12 17:55:35;;;;;;;20.00;10.27;;;;;;;;;;5050634;28;20417;-70
2022/05/12 17:58:40;;;;;;;26.17;10.73;;;;;;;;;;5050696;28;20047;-71
2022/05/12 18:01:44;;;;;;;17.35;10.80;;;;;;;;;;5049649;28;20120;-71
2022/05/12 18:04:49;;;;;;;23.88;11.32;;;;;;;;;;5050401;28;20132;-71
2022/05/12 18:07:53;;;;;;;22.83;11.90;;;;;;;;;;5050493;28;20060;-71
2022/05/12 18:10:57;;;;;;;29.45;11.90;;;;;;;;;;5049851;28;20048;-71
2022/05/12 18:14:02;;;;;;;19.00;10.52;;;;;;;;;;5050414;28;20044;-70
2022/05/12 18:17:08;;;;;;;21.88;11.20;;;;;;;;;;5050548;28;20048;-71
2022/05/12 18:20:16;;;;;;;24.27;10.65;;;;;;;;;;5049546;28;20056;-71
2022/05/12 18:23:20;;;;;;;22.48;11.55;;;;;;;;;;5050429;28;20040;-71
2022/05/12 18:26:25;;;;;;;29.85;13.40;;;;;;;;;;5050189;28;20524;-71
2022/05/12 18:29:29;;;;;;;22.88;12.23;;;;;;;;;;5050272;28;20412;-71
2022/05/12 18:32:34;;;;;;;23.25;12.52;;;;;;;;;;5050122;28;20713;-71
2022/05/12 18:35:43;;;;;;;21.73;12.80;;;;;;;;;;5050390;28;20040;-71
2022/05/12 18:38:47;;;;;;;24.85;13.15;;;;;;;;;;5050480;28;20060;-71